CheckWX is a tool to help pilots better visualize weather data.  It is not intended as a substitute for an official pre-flight weather briefing.

01:32:38 UTC

KMWT METAR
Mount Ida Airport
Mount Ida, Arkansas, USA
Current

40 mins ago

KMWT 200053Z AUTO 00000KT 10SM CLR 30/23 A2995 RMK AO2 SLP128 T03000233
Observed
Jul-20 @ 00:53 UTC
Visibility
10 SM
Flight Rules
VFR
Cloud Levels
  • Clear skies
Temperature
30°C / 86°F
Dewpoint
23°C / 73°F
Heat Index
34°C / 93°F
Humidity
66%
Altimeter
29.95" Hg
Pressure
1014.22 hPa
Previous

2 hours ago

KMWT 192353Z AUTO VRB03KT 10SM CLR 31/24 A2995 RMK AO2 SLP128 T03060239 10333 20300 58005
Observed
Jul-19 @ 23:53 UTC
Wind
  • Variable at 3 KTS
Visibility
10 SM
Flight Rules
VFR
Cloud Levels
  • Clear skies
Temperature
31°C / 88°F
Dewpoint
24°C / 75°F
Heat Index
37°C / 98°F
Humidity
66%
Altimeter
29.95" Hg
Pressure
1014.22 hPa
Previous

3 hours ago

KMWT 192253Z AUTO 00000KT 10SM FEW038 SCT060 32/23 A2996 RMK AO2 SLP129 T03170233
Observed
Jul-19 @ 22:53 UTC
Visibility
10 SM
Flight Rules
VFR
Cloud Levels
  • Few at 3,800' AGL
  • Scattered at 6,000' AGL
Temperature
32°C / 90°F
Dewpoint
23°C / 73°F
Heat Index
37°C / 99°F
Humidity
59%
Altimeter
29.96" Hg
Pressure
1014.52 hPa